| Date | Time | Temp. (oF) | Dew Point (oF) | Rel. Hum. (%) | Press. (in.) | Wind Dir. | Wind Speed (mph) | Hourly Rainfall (in.) |
|
|---|---|---|---|---|---|---|---|---|---|
| 1 | 03/03 | 00:00 | 49 | 49 | 100 | 29.84 | NE | 12 | 0.00 |
| 2 | 03/02 | 23:00 | 47 | 46 | 100 | 29.94 | ESE | 7 | 0.06 |
| 3 | 03/02 | 22:00 | 46 | 45 | 100 | 30.02 | ESE | 13 | 0.06 |
| 4 | 03/02 | 21:00 | 44 | 44 | 100 | 30.11 | ESE | 10 | 0.11 |
| 5 | 03/02 | 20:00 | 43 | 42 | 100 | 30.18 | E | 6 | 0.06 |
| 6 | 03/02 | 19:00 | 42 | 41 | 98 | 30.22 | ENE | 5 | 0.03 |
| 7 | 03/02 | 18:00 | 42 | 40 | 95 | 30.27 | ESE | 6 | 0.03 |
| 8 | 03/02 | 17:00 | 42 | 38 | 87 | 30.30 | SE | 5 | 0.01 |
| 9 | 03/02 | 16:00 | 46 | 36 | 68 | 30.32 | ESE | 8 | 0.00 |
| 10 | 03/02 | 15:00 | 47 | 34 | 61 | 30.34 | SE | 13 | 0.00 |
| 11 | 03/02 | 14:00 | 47 | 31 | 55 | 30.39 | SSE | 4 | 0.00 |
| 12 | 03/02 | 13:00 | 46 | 31 | 57 | 30.45 | S | 5 | 0.00 |
| 13 | 03/02 | 12:00 | 44 | 28 | 55 | 30.49 | ESE | 2 | 0.00 |
| 14 | 03/02 | 11:00 | 43 | 30 | 60 | 30.52 | SE | 4 | 0.00 |
| 15 | 03/02 | 10:00 | 39 | 31 | 73 | 30.57 | SE | 2 | 0.00 |
| 16 | 03/02 | 09:00 | 35 | 31 | 88 | 30.57 | SE | 2 | 0.00 |
| 17 | 03/02 | 08:00 | 31 | 27 | 87 | 30.57 | ENE | 1 | 0.00 |
| 18 | 03/02 | 07:00 | 32 | 27 | 83 | 30.57 | E | 2 | 0.00 |
| 19 | 03/02 | 06:00 | 31 | 26 | 82 | 30.57 | SSE | 3 | 0.00 |
| 20 | 03/02 | 05:00 | 29 | 24 | 84 | 30.56 | SE | 2 | 0.00 |
| 21 | 03/02 | 04:00 | 28 | 24 | 85 | 30.56 | N | 2 | 0.00 |
| 22 | 03/02 | 03:00 | 30 | 24 | 81 | 30.55 | N | 0 | 0.00 |
| 23 | 03/02 | 02:00 | 31 | 25 | 81 | 30.56 | SSE | 0 | 0.00 |
| 24 | 03/02 | 01:00 | 33 | 26 | 77 | 30.56 | SSE | 1 | 0.00 |